sensor_id;sensor_type;location;lat;lon;timestamp;temperature;humidity
64652;HTU21D;51062;45.120;37.660;2023-02-18T00:02:18;6.16;73.67
64652;HTU21D;51062;45.120;37.660;2023-02-18T00:04:44;6.17;73.67
64652;HTU21D;51062;45.120;37.660;2023-02-18T00:07:10;6.14;73.67
64652;HTU21D;51062;45.120;37.660;2023-02-18T00:09:37;6.15;73.70
64652;HTU21D;51062;45.120;37.660;2023-02-18T00:12:03;6.13;73.72
64652;HTU21D;51062;45.120;37.660;2023-02-18T00:14:29;6.12;73.74
64652;HTU21D;51062;45.120;37.660;2023-02-18T00:16:56;6.11;73.75
64652;HTU21D;51062;45.120;37.660;2023-02-18T00:19:22;6.09;73.73
64652;HTU21D;51062;45.120;37.660;2023-02-18T00:21:48;6.09;73.76
64652;HTU21D;51062;45.120;37.660;2023-02-18T00:24:15;6.08;73.75
64652;HTU21D;51062;45.120;37.660;2023-02-18T00:26:41;6.07;73.73
64652;HTU21D;51062;45.120;37.660;2023-02-18T00:29:08;6.06;73.72
64652;HTU21D;51062;45.120;37.660;2023-02-18T00:31:35;6.04;73.70
64652;HTU21D;51062;45.120;37.660;2023-02-18T00:34:03;6.02;73.68
64652;HTU21D;51062;45.120;37.660;2023-02-18T00:36:31;5.99;73.67
64652;HTU21D;51062;45.120;37.660;2023-02-18T00:39:00;5.98;73.67
64652;HTU21D;51062;45.120;37.660;2023-02-18T00:41:28;5.97;73.67
64652;HTU21D;51062;45.120;37.660;2023-02-18T00:43:56;5.95;73.71
64652;HTU21D;51062;45.120;37.660;2023-02-18T00:46:23;5.95;73.72
64652;HTU21D;51062;45.120;37.660;2023-02-18T00:48:49;5.93;73.70
64652;HTU21D;51062;45.120;37.660;2023-02-18T00:51:15;5.95;73.70
64652;HTU21D;51062;45.120;37.660;2023-02-18T00:53:41;5.93;73.68
64652;HTU21D;51062;45.120;37.660;2023-02-18T00:56:07;5.92;73.63
64652;HTU21D;51062;45.120;37.660;2023-02-18T00:58:35;5.90;73.63
64652;HTU21D;51062;45.120;37.660;2023-02-18T01:01:04;5.89;73.65
64652;HTU21D;51062;45.120;37.660;2023-02-18T01:03:30;5.89;73.67
64652;HTU21D;51062;45.120;37.660;2023-02-18T01:05:56;5.89;73.69
64652;HTU21D;51062;45.120;37.660;2023-02-18T01:08:22;5.89;73.69
64652;HTU21D;51062;45.120;37.660;2023-02-18T01:10:52;5.89;73.69
64652;HTU21D;51062;45.120;37.660;2023-02-18T01:13:19;5.89;73.69
64652;HTU21D;51062;45.120;37.660;2023-02-18T01:15:45;5.89;73.67
64652;HTU21D;51062;45.120;37.660;2023-02-18T01:18:14;5.87;73.64
64652;HTU21D;51062;45.120;37.660;2023-02-18T01:20:42;5.86;73.66
64652;HTU21D;51062;45.120;37.660;2023-02-18T01:23:08;5.87;73.65
64652;HTU21D;51062;45.120;37.660;2023-02-18T01:25:36;5.85;73.69
64652;HTU21D;51062;45.120;37.660;2023-02-18T01:28:03;5.84;73.71
64652;HTU21D;51062;45.120;37.660;2023-02-18T01:30:29;5.83;73.73
64652;HTU21D;51062;45.120;37.660;2023-02-18T01:32:56;5.83;73.75
64652;HTU21D;51062;45.120;37.660;2023-02-18T01:35:23;5.82;73.76
64652;HTU21D;51062;45.120;37.660;2023-02-18T01:37:49;5.81;73.76
64652;HTU21D;51062;45.120;37.660;2023-02-18T01:40:20;5.82;73.74
64652;HTU21D;51062;45.120;37.660;2023-02-18T01:42:46;5.83;73.69
64652;HTU21D;51062;45.120;37.660;2023-02-18T01:48:35;5.82;73.67
64652;HTU21D;51062;45.120;37.660;2023-02-18T01:51:16;5.81;73.68
64652;HTU21D;51062;45.120;37.660;2023-02-18T01:56:22;5.78;73.65
64652;HTU21D;51062;45.120;37.660;2023-02-18T01:58:52;5.75;73.62
64652;HTU21D;51062;45.120;37.660;2023-02-18T02:01:19;5.75;73.59
64652;HTU21D;51062;45.120;37.660;2023-02-18T02:03:45;5.71;73.54
64652;HTU21D;51062;45.120;37.660;2023-02-18T02:06:17;5.65;73.55
64652;HTU21D;51062;45.120;37.660;2023-02-18T02:08:44;5.59;73.50
64652;HTU21D;51062;45.120;37.660;2023-02-18T02:19:55;5.22;73.56
64652;HTU21D;51062;45.120;37.660;2023-02-18T02:22:39;5.13;73.58
64652;HTU21D;51062;45.120;37.660;2023-02-18T02:25:21;5.09;73.66
64652;HTU21D;51062;45.120;37.660;2023-02-18T02:27:59;5.04;73.74
64652;HTU21D;51062;45.120;37.660;2023-02-18T02:30:39;5.05;73.78
64652;HTU21D;51062;45.120;37.660;2023-02-18T02:36:25;5.06;73.86
64652;HTU21D;51062;45.120;37.660;2023-02-18T02:38:59;5.07;73.81
64652;HTU21D;51062;45.120;37.660;2023-02-18T02:44:21;5.07;73.72
64652;HTU21D;51062;45.120;37.660;2023-02-18T02:46:56;5.04;73.64
64652;HTU21D;51062;45.120;37.660;2023-02-18T02:52:19;4.94;73.61
64652;HTU21D;51062;45.120;37.660;2023-02-18T02:54:47;4.90;73.54
64652;HTU21D;51062;45.120;37.660;2023-02-18T03:00:02;4.79;73.62
64652;HTU21D;51062;45.120;37.660;2023-02-18T03:02:37;4.76;73.60
64652;HTU21D;51062;45.120;37.660;2023-02-18T03:18:47;4.65;74.10
64652;HTU21D;51062;45.120;37.660;2023-02-18T03:24:02;4.74;74.05
64652;HTU21D;51062;45.120;37.660;2023-02-18T03:26:33;4.78;73.93
64652;HTU21D;51062;45.120;37.660;2023-02-18T03:29:03;4.79;73.82
64652;HTU21D;51062;45.120;37.660;2023-02-18T03:31:33;4.80;73.85
64652;HTU21D;51062;45.120;37.660;2023-02-18T03:34:06;4.82;73.90
64652;HTU21D;51062;45.120;37.660;2023-02-18T03:36:36;4.88;73.95
64652;HTU21D;51062;45.120;37.660;2023-02-18T03:39:15;4.94;73.96
64652;HTU21D;51062;45.120;37.660;2023-02-18T03:41:42;5.03;73.88
64652;HTU21D;51062;45.120;37.660;2023-02-18T03:44:10;5.09;73.79
64652;HTU21D;51062;45.120;37.660;2023-02-18T03:46:37;5.15;73.65
64652;HTU21D;51062;45.120;37.660;2023-02-18T03:49:04;5.16;73.61
64652;HTU21D;51062;45.120;37.660;2023-02-18T03:51:31;5.15;73.67
64652;HTU21D;51062;45.120;37.660;2023-02-18T03:53:57;5.15;73.72
64652;HTU21D;51062;45.120;37.660;2023-02-18T03:56:23;5.13;73.79
64652;HTU21D;51062;45.120;37.660;2023-02-18T03:58:49;5.12;73.86
64652;HTU21D;51062;45.120;37.660;2023-02-18T04:01:16;5.17;73.89
64652;HTU21D;51062;45.120;37.660;2023-02-18T04:03:42;5.17;73.85
64652;HTU21D;51062;45.120;37.660;2023-02-18T04:06:08;5.18;73.88
64652;HTU21D;51062;45.120;37.660;2023-02-18T04:08:34;5.20;73.87
64652;HTU21D;51062;45.120;37.660;2023-02-18T04:11:00;5.22;73.83
64652;HTU21D;51062;45.120;37.660;2023-02-18T04:13:27;5.23;73.84
64652;HTU21D;51062;45.120;37.660;2023-02-18T04:15:53;5.25;73.82
64652;HTU21D;51062;45.120;37.660;2023-02-18T04:18:19;5.31;73.85
64652;HTU21D;51062;45.120;37.660;2023-02-18T04:20:45;5.34;73.84
64652;HTU21D;51062;45.120;37.660;2023-02-18T04:23:11;5.38;73.81
64652;HTU21D;51062;45.120;37.660;2023-02-18T04:25:38;5.45;73.76
64652;HTU21D;51062;45.120;37.660;2023-02-18T04:28:04;5.49;73.70
64652;HTU21D;51062;45.120;37.660;2023-02-18T04:30:30;5.52;73.68
64652;HTU21D;51062;45.120;37.660;2023-02-18T04:32:56;5.56;73.70
64652;HTU21D;51062;45.120;37.660;2023-02-18T04:35:22;5.60;73.69
64652;HTU21D;51062;45.120;37.660;2023-02-18T04:37:49;5.62;73.67
64652;HTU21D;51062;45.120;37.660;2023-02-18T04:40:15;5.65;73.66
64652;HTU21D;51062;45.120;37.660;2023-02-18T04:42:41;5.68;73.67
64652;HTU21D;51062;45.120;37.660;2023-02-18T04:45:08;5.71;73.68
64652;HTU21D;51062;45.120;37.660;2023-02-18T04:47:33;5.74;73.63
64652;HTU21D;51062;45.120;37.660;2023-02-18T04:50:00;5.78;73.59
64652;HTU21D;51062;45.120;37.660;2023-02-18T04:52:26;5.82;73.57
64652;HTU21D;51062;45.120;37.660;2023-02-18T04:54:52;5.84;73.54
64652;HTU21D;51062;45.120;37.660;2023-02-18T04:57:18;5.87;73.48
64652;HTU21D;51062;45.120;37.660;2023-02-18T04:59:44;5.90;73.49
64652;HTU21D;51062;45.120;37.660;2023-02-18T05:02:10;5.93;73.48
64652;HTU21D;51062;45.120;37.660;2023-02-18T05:04:36;5.96;73.47
64652;HTU21D;51062;45.120;37.660;2023-02-18T05:07:02;5.98;73.47
64652;HTU21D;51062;45.120;37.660;2023-02-18T05:09:28;6.04;73.44
64652;HTU21D;51062;45.120;37.660;2023-02-18T05:11:54;6.08;73.42
64652;HTU21D;51062;45.120;37.660;2023-02-18T05:14:20;6.11;73.42
64652;HTU21D;51062;45.120;37.660;2023-02-18T05:16:46;6.16;73.40
64652;HTU21D;51062;45.120;37.660;2023-02-18T05:19:15;6.21;73.35
64652;HTU21D;51062;45.120;37.660;2023-02-18T05:21:42;6.25;73.28
64652;HTU21D;51062;45.120;37.660;2023-02-18T05:24:09;6.27;73.29
64652;HTU21D;51062;45.120;37.660;2023-02-18T05:26:35;6.33;73.28
64652;HTU21D;51062;45.120;37.660;2023-02-18T05:29:02;6.38;73.26
64652;HTU21D;51062;45.120;37.660;2023-02-18T05:31:28;6.42;73.22
64652;HTU21D;51062;45.120;37.660;2023-02-18T05:33:54;6.46;73.19
64652;HTU21D;51062;45.120;37.660;2023-02-18T05:36:20;6.52;73.14
64652;HTU21D;51062;45.120;37.660;2023-02-18T05:38:47;6.56;73.12
64652;HTU21D;51062;45.120;37.660;2023-02-18T05:41:13;6.61;73.07
64652;HTU21D;51062;45.120;37.660;2023-02-18T05:43:39;6.66;73.05
64652;HTU21D;51062;45.120;37.660;2023-02-18T05:46:23;6.69;73.02
64652;HTU21D;51062;45.120;37.660;2023-02-18T05:48:49;6.75;72.99
64652;HTU21D;51062;45.120;37.660;2023-02-18T05:51:15;6.82;72.99
64652;HTU21D;51062;45.120;37.660;2023-02-18T05:53:41;6.88;72.93
64652;HTU21D;51062;45.120;37.660;2023-02-18T05:56:08;6.95;72.92
64652;HTU21D;51062;45.120;37.660;2023-02-18T05:58:34;7.03;72.92
64652;HTU21D;51062;45.120;37.660;2023-02-18T06:01:00;7.13;72.81
64652;HTU21D;51062;45.120;37.660;2023-02-18T06:03:26;7.22;72.84
64652;HTU21D;51062;45.120;37.660;2023-02-18T06:05:52;7.32;72.74
64652;HTU21D;51062;45.120;37.660;2023-02-18T06:08:18;7.44;72.73
64652;HTU21D;51062;45.120;37.660;2023-02-18T06:10:47;7.54;72.55
64652;HTU21D;51062;45.120;37.660;2023-02-18T06:13:13;7.58;72.47
64652;HTU21D;51062;45.120;37.660;2023-02-18T06:15:39;7.61;72.46
64652;HTU21D;51062;45.120;37.660;2023-02-18T06:18:06;7.62;72.46
64652;HTU21D;51062;45.120;37.660;2023-02-18T06:20:32;7.67;72.47
64652;HTU21D;51062;45.120;37.660;2023-02-18T06:22:58;7.69;72.48
64652;HTU21D;51062;45.120;37.660;2023-02-18T06:25:24;7.71;72.45
64652;HTU21D;51062;45.120;37.660;2023-02-18T06:27:50;7.73;72.41
64652;HTU21D;51062;45.120;37.660;2023-02-18T06:30:16;7.73;72.45
64652;HTU21D;51062;45.120;37.660;2023-02-18T06:32:43;7.75;72.43
64652;HTU21D;51062;45.120;37.660;2023-02-18T06:35:09;7.76;72.48
64652;HTU21D;51062;45.120;37.660;2023-02-18T06:37:35;7.83;72.58
64652;HTU21D;51062;45.120;37.660;2023-02-18T06:40:01;7.94;72.56
64652;HTU21D;51062;45.120;37.660;2023-02-18T06:42:27;8.04;72.48
64652;HTU21D;51062;45.120;37.660;2023-02-18T06:44:53;8.16;72.35
64652;HTU21D;51062;45.120;37.660;2023-02-18T06:47:19;8.21;72.32
64652;HTU21D;51062;45.120;37.660;2023-02-18T06:49:45;8.31;72.25
64652;HTU21D;51062;45.120;37.660;2023-02-18T06:52:11;8.41;72.19
64652;HTU21D;51062;45.120;37.660;2023-02-18T06:54:37;8.52;72.08
64652;HTU21D;51062;45.120;37.660;2023-02-18T06:57:03;8.63;71.97
64652;HTU21D;51062;45.120;37.660;2023-02-18T06:59:29;8.67;71.86
64652;HTU21D;51062;45.120;37.660;2023-02-18T07:01:55;8.65;71.80
64652;HTU21D;51062;45.120;37.660;2023-02-18T07:04:21;8.59;71.87
64652;HTU21D;51062;45.120;37.660;2023-02-18T07:06:47;8.60;72.04
64652;HTU21D;51062;45.120;37.660;2023-02-18T07:09:13;8.73;71.94
64652;HTU21D;51062;45.120;37.660;2023-02-18T07:11:39;8.88;71.72
64652;HTU21D;51062;45.120;37.660;2023-02-18T07:14:05;9.01;71.58
64652;HTU21D;51062;45.120;37.660;2023-02-18T07:16:31;9.12;71.49
64652;HTU21D;51062;45.120;37.660;2023-02-18T07:18:57;9.34;71.42
64652;HTU21D;51062;45.120;37.660;2023-02-18T07:21:23;9.88;71.42
64652;HTU21D;51062;45.120;37.660;2023-02-18T07:23:49;10.51;70.61
64652;HTU21D;51062;45.120;37.660;2023-02-18T07:26:15;10.98;69.87
64652;HTU21D;51062;45.120;37.660;2023-02-18T07:28:42;11.32;69.64
64652;HTU21D;51062;45.120;37.660;2023-02-18T07:31:08;11.57;69.30
64652;HTU21D;51062;45.120;37.660;2023-02-18T07:33:34;11.71;69.08
64652;HTU21D;51062;45.120;37.660;2023-02-18T07:36:01;11.85;69.10
64652;HTU21D;51062;45.120;37.660;2023-02-18T07:38:28;12.04;68.90
64652;HTU21D;51062;45.120;37.660;2023-02-18T07:40:54;12.07;68.87
64652;HTU21D;51062;45.120;37.660;2023-02-18T07:43:20;12.08;68.99
64652;HTU21D;51062;45.120;37.660;2023-02-18T07:45:46;12.04;68.75
64652;HTU21D;51062;45.120;37.660;2023-02-18T07:48:13;11.92;69.09
64652;HTU21D;51062;45.120;37.660;2023-02-18T07:50:40;11.99;69.02
64652;HTU21D;51062;45.120;37.660;2023-02-18T07:53:07;12.14;68.86
64652;HTU21D;51062;45.120;37.660;2023-02-18T07:55:33;12.26;68.56
64652;HTU21D;51062;45.120;37.660;2023-02-18T07:58:19;12.37;68.39
64652;HTU21D;51062;45.120;37.660;2023-02-18T08:00:46;12.41;68.07
64652;HTU21D;51062;45.120;37.660;2023-02-18T08:03:16;12.23;68.13
64652;HTU21D;51062;45.120;37.660;2023-02-18T08:05:43;12.01;68.34
64652;HTU21D;51062;45.120;37.660;2023-02-18T08:08:12;11.77;68.71
64652;HTU21D;51062;45.120;37.660;2023-02-18T08:10:39;11.79;68.87
64652;HTU21D;51062;45.120;37.660;2023-02-18T08:13:05;11.99;68.62
64652;HTU21D;51062;45.120;37.660;2023-02-18T08:15:31;12.05;68.01
64652;HTU21D;51062;45.120;37.660;2023-02-18T08:17:57;12.05;67.86
64652;HTU21D;51062;45.120;37.660;2023-02-18T08:20:23;12.10;67.75
64652;HTU21D;51062;45.120;37.660;2023-02-18T08:22:50;12.23;67.63
64652;HTU21D;51062;45.120;37.660;2023-02-18T08:25:16;12.35;67.33
64652;HTU21D;51062;45.120;37.660;2023-02-18T08:27:42;12.29;67.13
64652;HTU21D;51062;45.120;37.660;2023-02-18T08:30:08;12.15;67.20
64652;HTU21D;51062;45.120;37.660;2023-02-18T08:32:35;11.94;67.30
64652;HTU21D;51062;45.120;37.660;2023-02-18T08:35:02;11.73;67.43
64652;HTU21D;51062;45.120;37.660;2023-02-18T08:37:28;11.60;67.55
64652;HTU21D;51062;45.120;37.660;2023-02-18T08:39:54;11.53;67.44
64652;HTU21D;51062;45.120;37.660;2023-02-18T08:42:20;11.52;67.45
64652;HTU21D;51062;45.120;37.660;2023-02-18T08:44:46;11.49;67.36
64652;HTU21D;51062;45.120;37.660;2023-02-18T08:47:12;11.59;67.42
64652;HTU21D;51062;45.120;37.660;2023-02-18T08:49:38;11.63;67.20
64652;HTU21D;51062;45.120;37.660;2023-02-18T08:52:04;11.64;67.04
64652;HTU21D;51062;45.120;37.660;2023-02-18T08:54:30;11.56;67.05
64652;HTU21D;51062;45.120;37.660;2023-02-18T08:56:56;11.53;67.28
64652;HTU21D;51062;45.120;37.660;2023-02-18T08:59:24;11.53;67.02
64652;HTU21D;51062;45.120;37.660;2023-02-18T09:01:50;11.48;67.10
64652;HTU21D;51062;45.120;37.660;2023-02-18T09:04:16;11.49;67.17
64652;HTU21D;51062;45.120;37.660;2023-02-18T09:06:42;11.52;66.96
64652;HTU21D;51062;45.120;37.660;2023-02-18T09:09:09;11.52;66.94
64652;HTU21D;51062;45.120;37.660;2023-02-18T09:11:35;11.47;66.83
64652;HTU21D;51062;45.120;37.660;2023-02-18T09:14:01;11.36;66.92
64652;HTU21D;51062;45.120;37.660;2023-02-18T09:16:27;11.29;67.07
64652;HTU21D;51062;45.120;37.660;2023-02-18T09:18:55;11.23;67.10
64652;HTU21D;51062;45.120;37.660;2023-02-18T09:21:22;11.16;67.17
64652;HTU21D;51062;45.120;37.660;2023-02-18T09:23:49;11.09;67.20
64652;HTU21D;51062;45.120;37.660;2023-02-18T09:26:18;11.00;67.21
64652;HTU21D;51062;45.120;37.660;2023-02-18T09:28:46;10.94;67.24
64652;HTU21D;51062;45.120;37.660;2023-02-18T09:31:21;10.93;67.33
64652;HTU21D;51062;45.120;37.660;2023-02-18T09:33:50;10.97;67.31
64652;HTU21D;51062;45.120;37.660;2023-02-18T09:36:17;10.98;67.26
64652;HTU21D;51062;45.120;37.660;2023-02-18T09:38:43;11.00;67.20
64652;HTU21D;51062;45.120;37.660;2023-02-18T09:41:18;10.96;67.17
64652;HTU21D;51062;45.120;37.660;2023-02-18T09:43:48;10.90;67.11
64652;HTU21D;51062;45.120;37.660;2023-02-18T09:46:38;10.81;67.10
64652;HTU21D;51062;45.120;37.660;2023-02-18T09:49:26;10.83;67.12
64652;HTU21D;51062;45.120;37.660;2023-02-18T09:51:54;10.86;67.07
64652;HTU21D;51062;45.120;37.660;2023-02-18T09:54:21;10.89;66.98
64652;HTU21D;51062;45.120;37.660;2023-02-18T09:56:47;10.94;67.00
64652;HTU21D;51062;45.120;37.660;2023-02-18T09:59:19;11.02;66.94
64652;HTU21D;51062;45.120;37.660;2023-02-18T10:01:48;11.07;66.72
64652;HTU21D;51062;45.120;37.660;2023-02-18T10:04:17;11.02;66.46
64652;HTU21D;51062;45.120;37.660;2023-02-18T10:06:47;10.93;66.42
64652;HTU21D;51062;45.120;37.660;2023-02-18T10:09:29;10.85;66.46
64652;HTU21D;51062;45.120;37.660;2023-02-18T10:12:01;10.80;66.51
64652;HTU21D;51062;45.120;37.660;2023-02-18T10:14:30;10.75;66.50
64652;HTU21D;51062;45.120;37.660;2023-02-18T10:16:57;10.72;66.50
64652;HTU21D;51062;45.120;37.660;2023-02-18T10:19:29;10.67;66.49
64652;HTU21D;51062;45.120;37.660;2023-02-18T10:21:59;10.62;66.49
64652;HTU21D;51062;45.120;37.660;2023-02-18T10:24:41;10.60;66.45
64652;HTU21D;51062;45.120;37.660;2023-02-18T10:27:24;10.59;66.50
64652;HTU21D;51062;45.120;37.660;2023-02-18T10:29:51;10.59;66.49
64652;HTU21D;51062;45.120;37.660;2023-02-18T10:32:22;10.60;66.43
64652;HTU21D;51062;45.120;37.660;2023-02-18T10:34:53;10.62;66.40
64652;HTU21D;51062;45.120;37.660;2023-02-18T10:40:21;10.51;66.11
64652;HTU21D;51062;45.120;37.660;2023-02-18T10:43:02;10.48;66.04
64652;HTU21D;51062;45.120;37.660;2023-02-18T10:45:46;10.43;66.02
64652;HTU21D;51062;45.120;37.660;2023-02-18T10:50:59;10.36;65.81
64652;HTU21D;51062;45.120;37.660;2023-02-18T10:53:33;10.31;65.75
64652;HTU21D;51062;45.120;37.660;2023-02-18T10:55:59;10.25;65.65
64652;HTU21D;51062;45.120;37.660;2023-02-18T10:58:35;10.19;65.56
64652;HTU21D;51062;45.120;37.660;2023-02-18T11:01:12;10.11;65.49
64652;HTU21D;51062;45.120;37.660;2023-02-18T11:03:47;10.04;65.41
64652;HTU21D;51062;45.120;37.660;2023-02-18T11:06:31;10.00;65.41
64652;HTU21D;51062;45.120;37.660;2023-02-18T11:08:59;9.97;65.45
64652;HTU21D;51062;45.120;37.660;2023-02-18T11:11:33;9.97;65.44
64652;HTU21D;51062;45.120;37.660;2023-02-18T11:14:04;9.96;65.43
64652;HTU21D;51062;45.120;37.660;2023-02-18T11:16:44;9.96;65.28
64652;HTU21D;51062;45.120;37.660;2023-02-18T11:19:39;9.95;65.29
64652;HTU21D;51062;45.120;37.660;2023-02-18T11:22:14;9.95;65.25
64652;HTU21D;51062;45.120;37.660;2023-02-18T11:24:44;9.96;65.21
64652;HTU21D;51062;45.120;37.660;2023-02-18T11:27:41;10.00;65.21
64652;HTU21D;51062;45.120;37.660;2023-02-18T11:30:44;10.06;65.15
64652;HTU21D;51062;45.120;37.660;2023-02-18T11:33:19;10.10;65.21
64652;HTU21D;51062;45.120;37.660;2023-02-18T11:35:50;10.18;65.12
64652;HTU21D;51062;45.120;37.660;2023-02-18T11:40:56;10.28;65.01
64652;HTU21D;51062;45.120;37.660;2023-02-18T11:43:28;10.31;64.88
64652;HTU21D;51062;45.120;37.660;2023-02-18T11:46:12;10.31;64.88
64652;HTU21D;51062;45.120;37.660;2023-02-18T11:48:39;10.35;64.87
64652;HTU21D;51062;45.120;37.660;2023-02-18T11:51:17;10.35;64.76
64652;HTU21D;51062;45.120;37.660;2023-02-18T11:56:26;10.25;64.75
64652;HTU21D;51062;45.120;37.660;2023-02-18T11:58:53;10.22;64.80
64652;HTU21D;51062;45.120;37.660;2023-02-18T12:06:40;10.08;64.93
64652;HTU21D;51062;45.120;37.660;2023-02-18T12:12:02;9.91;64.97
64652;HTU21D;51062;45.120;37.660;2023-02-18T12:14:30;9.82;65.06
64652;HTU21D;51062;45.120;37.660;2023-02-18T12:30:49;9.34;65.78
64652;HTU21D;51062;45.120;37.660;2023-02-18T12:39:26;9.15;66.12
64652;HTU21D;51062;45.120;37.660;2023-02-18T12:47:30;9.03;66.47
64652;HTU21D;51062;45.120;37.660;2023-02-18T12:52:52;9.06;66.69
64652;HTU21D;51062;45.120;37.660;2023-02-18T12:58:27;9.07;66.84
64652;HTU21D;51062;45.120;37.660;2023-02-18T13:09:39;8.79;67.37
64652;HTU21D;51062;45.120;37.660;2023-02-18T13:12:28;8.73;67.58
64652;HTU21D;51062;45.120;37.660;2023-02-18T13:15:10;8.68;67.73
64652;HTU21D;51062;45.120;37.660;2023-02-18T13:17:40;8.70;67.82
64652;HTU21D;51062;45.120;37.660;2023-02-18T13:20:24;8.70;67.91
64652;HTU21D;51062;45.120;37.660;2023-02-18T13:22:52;8.68;67.97
64652;HTU21D;51062;45.120;37.660;2023-02-18T13:25:20;8.67;68.10
64652;HTU21D;51062;45.120;37.660;2023-02-18T13:28:06;8.66;68.19
64652;HTU21D;51062;45.120;37.660;2023-02-18T13:36:03;8.68;68.44
64652;HTU21D;51062;45.120;37.660;2023-02-18T13:41:18;8.68;68.57
64652;HTU21D;51062;45.120;37.660;2023-02-18T13:43:44;8.67;68.65
64652;HTU21D;51062;45.120;37.660;2023-02-18T13:48:53;8.66;68.98
64652;HTU21D;51062;45.120;37.660;2023-02-18T13:51:37;8.64;69.04
64652;HTU21D;51062;45.120;37.660;2023-02-18T13:56:42;8.60;69.25
64652;HTU21D;51062;45.120;37.660;2023-02-18T13:59:27;8.57;69.35
64652;HTU21D;51062;45.120;37.660;2023-02-18T14:50:46;8.31;71.02
64652;HTU21D;51062;45.120;37.660;2023-02-18T14:53:18;8.31;71.11
64652;HTU21D;51062;45.120;37.660;2023-02-18T14:55:47;8.31;71.16
64652;HTU21D;51062;45.120;37.660;2023-02-18T14:58:41;8.31;71.25
64652;HTU21D;51062;45.120;37.660;2023-02-18T15:01:21;8.34;71.33
64652;HTU21D;51062;45.120;37.660;2023-02-18T15:03:49;8.35;71.43
64652;HTU21D;51062;45.120;37.660;2023-02-18T15:06:27;8.37;71.56
64652;HTU21D;51062;45.120;37.660;2023-02-18T15:08:56;8.41;71.61
64652;HTU21D;51062;45.120;37.660;2023-02-18T15:11:36;8.47;71.68
64652;HTU21D;51062;45.120;37.660;2023-02-18T15:14:18;8.51;71.67
64652;HTU21D;51062;45.120;37.660;2023-02-18T15:16:45;8.55;71.74
64652;HTU21D;51062;45.120;37.660;2023-02-18T15:19:14;8.59;71.76
64652;HTU21D;51062;45.120;37.660;2023-02-18T15:21:45;8.61;71.77
64652;HTU21D;51062;45.120;37.660;2023-02-18T15:24:33;8.63;71.81
64652;HTU21D;51062;45.120;37.660;2023-02-18T15:27:11;8.65;71.87
64652;HTU21D;51062;45.120;37.660;2023-02-18T15:29:38;8.66;71.90
64652;HTU21D;51062;45.120;37.660;2023-02-18T15:32:27;8.66;71.98
64652;HTU21D;51062;45.120;37.660;2023-02-18T15:34:59;8.65;72.06
64652;HTU21D;51062;45.120;37.660;2023-02-18T15:37:27;8.66;72.10
64652;HTU21D;51062;45.120;37.660;2023-02-18T15:39:54;8.66;72.17
64652;HTU21D;51062;45.120;37.660;2023-02-18T15:42:29;8.67;72.25
64652;HTU21D;51062;45.120;37.660;2023-02-18T15:47:24;8.71;72.48
64652;HTU21D;51062;45.120;37.660;2023-02-18T15:49:53;8.75;72.56
64652;HTU21D;51062;45.120;37.660;2023-02-18T15:52:29;8.76;72.61
64652;HTU21D;51062;45.120;37.660;2023-02-18T15:55:02;8.78;72.59
64652;HTU21D;51062;45.120;37.660;2023-02-18T15:57:29;8.79;72.62
64652;HTU21D;51062;45.120;37.660;2023-02-18T16:00:10;8.82;72.70
64652;HTU21D;51062;45.120;37.660;2023-02-18T16:02:53;8.83;72.73
64652;HTU21D;51062;45.120;37.660;2023-02-18T16:05:24;8.86;72.74
64652;HTU21D;51062;45.120;37.660;2023-02-18T16:08:00;8.87;72.80
64652;HTU21D;51062;45.120;37.660;2023-02-18T16:13:02;8.90;72.90
64652;HTU21D;51062;45.120;37.660;2023-02-18T16:15:31;8.91;72.97
64652;HTU21D;51062;45.120;37.660;2023-02-18T16:18:02;8.91;72.98
64652;HTU21D;51062;45.120;37.660;2023-02-18T16:20:35;8.93;73.07
64652;HTU21D;51062;45.120;37.660;2023-02-18T16:23:13;8.95;73.15
64652;HTU21D;51062;45.120;37.660;2023-02-18T16:25:48;8.96;73.14
64652;HTU21D;51062;45.120;37.660;2023-02-18T16:28:31;8.97;73.23
64652;HTU21D;51062;45.120;37.660;2023-02-18T16:30:57;8.97;73.25
64652;HTU21D;51062;45.120;37.660;2023-02-18T16:33:25;8.98;73.26
64652;HTU21D;51062;45.120;37.660;2023-02-18T16:35:52;8.98;73.32
64652;HTU21D;51062;45.120;37.660;2023-02-18T16:38:24;9.00;73.39
64652;HTU21D;51062;45.120;37.660;2023-02-18T16:40:52;9.00;73.45
64652;HTU21D;51062;45.120;37.660;2023-02-18T16:43:22;9.00;73.49
64652;HTU21D;51062;45.120;37.660;2023-02-18T16:45:51;9.01;73.52
64652;HTU21D;51062;45.120;37.660;2023-02-18T16:48:30;9.00;73.63
64652;HTU21D;51062;45.120;37.660;2023-02-18T16:51:02;8.98;73.70
64652;HTU21D;51062;45.120;37.660;2023-02-18T16:53:51;8.98;73.68
64652;HTU21D;51062;45.120;37.660;2023-02-18T16:56:23;8.97;73.71
64652;HTU21D;51062;45.120;37.660;2023-02-18T16:58:50;8.97;73.77
64652;HTU21D;51062;45.120;37.660;2023-02-18T17:04:18;8.93;73.81
64652;HTU21D;51062;45.120;37.660;2023-02-18T17:06:47;8.91;73.86
64652;HTU21D;51062;45.120;37.660;2023-02-18T17:09:18;8.86;73.93
64652;HTU21D;51062;45.120;37.660;2023-02-18T17:11:50;8.81;74.00
64652;HTU21D;51062;45.120;37.660;2023-02-18T17:14:21;8.79;74.06
64652;HTU21D;51062;45.120;37.660;2023-02-18T17:16:50;8.75;74.11
64652;HTU21D;51062;45.120;37.660;2023-02-18T17:19:17;8.71;74.15
64652;HTU21D;51062;45.120;37.660;2023-02-18T17:21:46;8.67;74.26
64652;HTU21D;51062;45.120;37.660;2023-02-18T17:24:14;8.65;74.35
64652;HTU21D;51062;45.120;37.660;2023-02-18T17:26:43;8.64;74.41
64652;HTU21D;51062;45.120;37.660;2023-02-18T17:29:09;8.64;74.50
64652;HTU21D;51062;45.120;37.660;2023-02-18T17:31:41;8.62;74.50
64652;HTU21D;51062;45.120;37.660;2023-02-18T17:34:26;8.60;74.60
64652;HTU21D;51062;45.120;37.660;2023-02-18T17:36:57;8.60;74.66
64652;HTU21D;51062;45.120;37.660;2023-02-18T17:39:23;8.63;74.70
64652;HTU21D;51062;45.120;37.660;2023-02-18T17:41:50;8.67;74.73
64652;HTU21D;51062;45.120;37.660;2023-02-18T17:44:39;8.72;74.80
64652;HTU21D;51062;45.120;37.660;2023-02-18T17:47:05;8.73;74.78
64652;HTU21D;51062;45.120;37.660;2023-02-18T17:49:32;8.76;74.78
64652;HTU21D;51062;45.120;37.660;2023-02-18T17:51:59;8.79;74.80
64652;HTU21D;51062;45.120;37.660;2023-02-18T17:54:27;8.81;74.83
64652;HTU21D;51062;45.120;37.660;2023-02-18T17:56:53;8.81;74.85
64652;HTU21D;51062;45.120;37.660;2023-02-18T17:59:21;8.83;74.84
64652;HTU21D;51062;45.120;37.660;2023-02-18T18:01:48;8.83;74.86
64652;HTU21D;51062;45.120;37.660;2023-02-18T18:04:18;8.86;74.89
64652;HTU21D;51062;45.120;37.660;2023-02-18T18:06:44;8.86;74.93
64652;HTU21D;51062;45.120;37.660;2023-02-18T18:09:12;8.88;74.95
64652;HTU21D;51062;45.120;37.660;2023-02-18T18:11:38;8.89;74.92
64652;HTU21D;51062;45.120;37.660;2023-02-18T18:14:25;8.89;74.87
64652;HTU21D;51062;45.120;37.660;2023-02-18T18:16:53;8.88;74.87
64652;HTU21D;51062;45.120;37.660;2023-02-18T18:19:20;8.86;74.87
64652;HTU21D;51062;45.120;37.660;2023-02-18T18:21:47;8.86;74.91